sensor_id;sensor_type;location;lat;lon;timestamp;temperature;humidity
13808;DHT22;40769;51.512;5.494;2022-12-18T00:01:57;-0.90;99.90
13808;DHT22;40769;51.512;5.494;2022-12-18T00:04:24;-0.90;99.90
13808;DHT22;40769;51.512;5.494;2022-12-18T00:06:50;-1.00;99.90
13808;DHT22;40769;51.512;5.494;2022-12-18T00:09:16;-1.10;99.90
13808;DHT22;40769;51.512;5.494;2022-12-18T00:11:42;-1.30;99.90
13808;DHT22;40769;51.512;5.494;2022-12-18T00:14:11;-1.50;99.90
13808;DHT22;40769;51.512;5.494;2022-12-18T00:16:37;-1.60;99.90
13808;DHT22;40769;51.512;5.494;2022-12-18T00:19:03;-1.70;99.90
13808;DHT22;40769;51.512;5.494;2022-12-18T00:21:31;-1.80;99.90
13808;DHT22;40769;51.512;5.494;2022-12-18T00:23:58;-2.10;99.90
13808;DHT22;40769;51.512;5.494;2022-12-18T00:26:27;-2.00;99.90
13808;DHT22;40769;51.512;5.494;2022-12-18T00:28:53;-2.10;99.90
13808;DHT22;40769;51.512;5.494;2022-12-18T00:31:21;-2.00;99.90
13808;DHT22;40769;51.512;5.494;2022-12-18T00:33:47;-2.20;99.90
13808;DHT22;40769;51.512;5.494;2022-12-18T00:36:16;-2.00;99.90
13808;DHT22;40769;51.512;5.494;2022-12-18T00:38:43;-3.20;99.90
13808;DHT22;40769;51.512;5.494;2022-12-18T00:41:09;-1.60;99.90
13808;DHT22;40769;51.512;5.494;2022-12-18T00:43:36;-1.40;99.90
13808;DHT22;40769;51.512;5.494;2022-12-18T00:46:02;-1.30;99.90
13808;DHT22;40769;51.512;5.494;2022-12-18T00:48:28;-1.30;99.90
13808;DHT22;40769;51.512;5.494;2022-12-18T00:50:53;-1.40;99.90
13808;DHT22;40769;51.512;5.494;2022-12-18T00:53:19;-1.60;99.90
13808;DHT22;40769;51.512;5.494;2022-12-18T00:55:45;-1.70;99.90
13808;DHT22;40769;51.512;5.494;2022-12-18T00:58:13;-1.90;99.90
13808;DHT22;40769;51.512;5.494;2022-12-18T01:00:39;-2.00;99.90
13808;DHT22;40769;51.512;5.494;2022-12-18T01:03:04;-2.10;99.90
13808;DHT22;40769;51.512;5.494;2022-12-18T01:05:30;-2.20;99.90
13808;DHT22;40769;51.512;5.494;2022-12-18T01:07:56;-2.20;99.90
13808;DHT22;40769;51.512;5.494;2022-12-18T01:10:22;-2.30;99.90
13808;DHT22;40769;51.512;5.494;2022-12-18T01:12:49;-2.30;99.90
13808;DHT22;40769;51.512;5.494;2022-12-18T01:15:15;-2.20;99.90
13808;DHT22;40769;51.512;5.494;2022-12-18T01:17:41;-2.30;99.90
13808;DHT22;40769;51.512;5.494;2022-12-18T01:20:07;-2.20;99.90
13808;DHT22;40769;51.512;5.494;2022-12-18T01:22:34;-1.80;99.90
13808;DHT22;40769;51.512;5.494;2022-12-18T01:24:59;-1.70;99.90
13808;DHT22;40769;51.512;5.494;2022-12-18T01:27:25;-1.60;99.90
13808;DHT22;40769;51.512;5.494;2022-12-18T01:29:51;-1.70;99.90
13808;DHT22;40769;51.512;5.494;2022-12-18T01:32:16;-1.80;99.90
13808;DHT22;40769;51.512;5.494;2022-12-18T01:34:42;-2.00;99.90
13808;DHT22;40769;51.512;5.494;2022-12-18T01:37:08;-2.10;99.90
13808;DHT22;40769;51.512;5.494;2022-12-18T01:39:34;-2.30;99.90
13808;DHT22;40769;51.512;5.494;2022-12-18T01:42:02;-2.50;99.90
13808;DHT22;40769;51.512;5.494;2022-12-18T01:47:46;-2.80;99.90
13808;DHT22;40769;51.512;5.494;2022-12-18T01:53:03;-3.00;99.90
13808;DHT22;40769;51.512;5.494;2022-12-18T01:55:35;-3.00;99.90
13808;DHT22;40769;51.512;5.494;2022-12-18T01:58:02;-3.10;99.90
13808;DHT22;40769;51.512;5.494;2022-12-18T02:00:29;-3.00;99.90
13808;DHT22;40769;51.512;5.494;2022-12-18T02:02:55;-2.80;99.90
13808;DHT22;40769;51.512;5.494;2022-12-18T02:06:02;-2.60;99.90
13808;DHT22;40769;51.512;5.494;2022-12-18T02:08:30;-2.30;99.90
13808;DHT22;40769;51.512;5.494;2022-12-18T02:11:15;-2.30;99.90
13808;DHT22;40769;51.512;5.494;2022-12-18T02:18:45;-2.70;99.90
13808;DHT22;40769;51.512;5.494;2022-12-18T02:21:23;-2.80;99.90
13808;DHT22;40769;51.512;5.494;2022-12-18T02:26:58;-3.10;99.90
13808;DHT22;40769;51.512;5.494;2022-12-18T02:29:34;-3.20;99.90
13808;DHT22;40769;51.512;5.494;2022-12-18T02:32:04;-3.20;99.90
13808;DHT22;40769;51.512;5.494;2022-12-18T02:34:33;-3.20;99.90
13808;DHT22;40769;51.512;5.494;2022-12-18T02:37:04;-3.20;99.90
13808;DHT22;40769;51.512;5.494;2022-12-18T02:39:34;-3.20;99.90
13808;DHT22;40769;51.512;5.494;2022-12-18T02:42:01;-3.10;99.90
13808;DHT22;40769;51.512;5.494;2022-12-18T02:44:34;-3.00;99.90
13808;DHT22;40769;51.512;5.494;2022-12-18T02:47:00;-2.80;99.90
13808;DHT22;40769;51.512;5.494;2022-12-18T02:55:42;-2.50;99.90
13808;DHT22;40769;51.512;5.494;2022-12-18T02:58:20;-2.60;99.90
13808;DHT22;40769;51.512;5.494;2022-12-18T03:00:58;-2.80;99.90
13808;DHT22;40769;51.512;5.494;2022-12-18T03:03:43;-2.90;99.90
13808;DHT22;40769;51.512;5.494;2022-12-18T03:06:14;-3.10;99.90
13808;DHT22;40769;51.512;5.494;2022-12-18T03:08:46;-3.20;99.90
13808;DHT22;40769;51.512;5.494;2022-12-18T03:11:13;-3.40;99.90
13808;DHT22;40769;51.512;5.494;2022-12-18T03:13:41;-3.40;99.90
13808;DHT22;40769;51.512;5.494;2022-12-18T03:16:11;-3.40;99.90
13808;DHT22;40769;51.512;5.494;2022-12-18T03:18:52;-3.50;99.90
13808;DHT22;40769;51.512;5.494;2022-12-18T03:21:23;-3.50;99.90
13808;DHT22;40769;51.512;5.494;2022-12-18T03:23:51;-3.40;99.90
13808;DHT22;40769;51.512;5.494;2022-12-18T03:26:20;-3.40;99.90
13808;DHT22;40769;51.512;5.494;2022-12-18T03:28:54;-3.20;99.90
13808;DHT22;40769;51.512;5.494;2022-12-18T03:31:23;-2.90;99.90
13808;DHT22;40769;51.512;5.494;2022-12-18T03:33:55;-2.60;99.90
13808;DHT22;40769;51.512;5.494;2022-12-18T03:36:23;-2.50;99.90
13808;DHT22;40769;51.512;5.494;2022-12-18T03:38:49;-2.60;99.90
13808;DHT22;40769;51.512;5.494;2022-12-18T03:42:16;-2.70;99.90
13808;DHT22;40769;51.512;5.494;2022-12-18T03:47:13;-3.00;99.90
13808;DHT22;40769;51.512;5.494;2022-12-18T03:52:36;-3.20;99.90
13808;DHT22;40769;51.512;5.494;2022-12-18T03:55:04;-3.40;99.90
13808;DHT22;40769;51.512;5.494;2022-12-18T03:57:31;-3.50;99.90
13808;DHT22;40769;51.512;5.494;2022-12-18T04:00:02;-3.50;99.90
13808;DHT22;40769;51.512;5.494;2022-12-18T04:02:30;-3.50;99.90
13808;DHT22;40769;51.512;5.494;2022-12-18T04:04:58;-3.50;99.90
13808;DHT22;40769;51.512;5.494;2022-12-18T04:07:25;-3.50;99.90
13808;DHT22;40769;51.512;5.494;2022-12-18T04:09:54;-3.50;99.90
13808;DHT22;40769;51.512;5.494;2022-12-18T04:12:23;-3.40;99.90
13808;DHT22;40769;51.512;5.494;2022-12-18T04:14:49;-3.20;99.90
13808;DHT22;40769;51.512;5.494;2022-12-18T04:17:14;-2.90;99.90
13808;DHT22;40769;51.512;5.494;2022-12-18T04:19:40;-2.70;99.90
13808;DHT22;40769;51.512;5.494;2022-12-18T04:22:05;-2.60;99.90
13808;DHT22;40769;51.512;5.494;2022-12-18T04:24:31;-2.70;99.90
13808;DHT22;40769;51.512;5.494;2022-12-18T04:26:57;-2.90;99.90
13808;DHT22;40769;51.512;5.494;2022-12-18T04:29:22;-3.00;99.90
13808;DHT22;40769;51.512;5.494;2022-12-18T04:31:48;-3.10;99.90
13808;DHT22;40769;51.512;5.494;2022-12-18T04:34:13;-3.30;99.90
13808;DHT22;40769;51.512;5.494;2022-12-18T04:36:39;-3.40;99.90
13808;DHT22;40769;51.512;5.494;2022-12-18T04:39:05;-3.50;99.90
13808;DHT22;40769;51.512;5.494;2022-12-18T04:41:30;-3.60;99.90
13808;DHT22;40769;51.512;5.494;2022-12-18T04:43:56;-3.70;99.90
13808;DHT22;40769;51.512;5.494;2022-12-18T04:46:21;-3.70;99.90
13808;DHT22;40769;51.512;5.494;2022-12-18T04:48:47;-3.70;99.90
13808;DHT22;40769;51.512;5.494;2022-12-18T04:51:13;-3.70;99.90
13808;DHT22;40769;51.512;5.494;2022-12-18T04:53:38;-3.70;99.90
13808;DHT22;40769;51.512;5.494;2022-12-18T04:56:06;-3.60;99.90
13808;DHT22;40769;51.512;5.494;2022-12-18T04:58:32;-3.40;99.90
13808;DHT22;40769;51.512;5.494;2022-12-18T05:00:58;-3.20;99.90
13808;DHT22;40769;51.512;5.494;2022-12-18T05:03:23;-2.90;99.90
13808;DHT22;40769;51.512;5.494;2022-12-18T05:05:50;-2.80;99.90
13808;DHT22;40769;51.512;5.494;2022-12-18T05:08:16;-2.80;99.90
13808;DHT22;40769;51.512;5.494;2022-12-18T05:10:42;-2.90;99.90
13808;DHT22;40769;51.512;5.494;2022-12-18T05:13:08;-3.00;99.90
13808;DHT22;40769;51.512;5.494;2022-12-18T05:15:34;-3.10;99.90
13808;DHT22;40769;51.512;5.494;2022-12-18T05:18:00;-3.30;99.90
13808;DHT22;40769;51.512;5.494;2022-12-18T05:20:26;-3.40;99.90
13808;DHT22;40769;51.512;5.494;2022-12-18T05:22:53;-3.40;99.90
13808;DHT22;40769;51.512;5.494;2022-12-18T05:25:19;-3.50;99.90
13808;DHT22;40769;51.512;5.494;2022-12-18T05:27:45;-3.60;99.90
13808;DHT22;40769;51.512;5.494;2022-12-18T05:30:12;-3.60;99.90
13808;DHT22;40769;51.512;5.494;2022-12-18T05:32:38;-3.60;99.90
13808;DHT22;40769;51.512;5.494;2022-12-18T05:35:05;-3.60;99.90
13808;DHT22;40769;51.512;5.494;2022-12-18T05:37:31;-3.50;99.90
13808;DHT22;40769;51.512;5.494;2022-12-18T05:39:57;-3.50;99.90
13808;DHT22;40769;51.512;5.494;2022-12-18T05:42:22;-3.30;99.90
13808;DHT22;40769;51.512;5.494;2022-12-18T05:44:48;-3.10;99.90
13808;DHT22;40769;51.512;5.494;2022-12-18T05:47:14;-2.80;99.90
13808;DHT22;40769;51.512;5.494;2022-12-18T05:49:39;-2.60;99.90
13808;DHT22;40769;51.512;5.494;2022-12-18T05:52:05;-2.60;99.90
13808;DHT22;40769;51.512;5.494;2022-12-18T05:54:30;-2.70;99.90
13808;DHT22;40769;51.512;5.494;2022-12-18T05:56:57;-2.80;99.90
13808;DHT22;40769;51.512;5.494;2022-12-18T05:59:23;-2.90;99.90
13808;DHT22;40769;51.512;5.494;2022-12-18T06:01:49;-3.10;99.90
13808;DHT22;40769;51.512;5.494;2022-12-18T06:04:15;-2.10;99.90
13808;DHT22;40769;51.512;5.494;2022-12-18T06:06:40;-3.40;99.90
13808;DHT22;40769;51.512;5.494;2022-12-18T06:09:06;-3.50;99.90
13808;DHT22;40769;51.512;5.494;2022-12-18T06:11:35;-3.50;99.90
13808;DHT22;40769;51.512;5.494;2022-12-18T06:14:01;-3.60;99.90
13808;DHT22;40769;51.512;5.494;2022-12-18T06:16:27;-3.70;99.90
13808;DHT22;40769;51.512;5.494;2022-12-18T06:18:57;-3.70;99.90
13808;DHT22;40769;51.512;5.494;2022-12-18T06:21:22;-3.70;99.90
13808;DHT22;40769;51.512;5.494;2022-12-18T06:23:48;-3.70;99.90
13808;DHT22;40769;51.512;5.494;2022-12-18T06:26:13;-3.60;99.90
13808;DHT22;40769;51.512;5.494;2022-12-18T06:28:39;-3.40;99.90
13808;DHT22;40769;51.512;5.494;2022-12-18T06:31:06;-3.10;99.90
13808;DHT22;40769;51.512;5.494;2022-12-18T06:33:33;-2.90;99.90
13808;DHT22;40769;51.512;5.494;2022-12-18T06:36:11;-2.80;99.90
13808;DHT22;40769;51.512;5.494;2022-12-18T06:38:39;-2.80;99.90
13808;DHT22;40769;51.512;5.494;2022-12-18T06:41:10;-3.00;99.90
13808;DHT22;40769;51.512;5.494;2022-12-18T06:43:35;-3.10;99.90
13808;DHT22;40769;51.512;5.494;2022-12-18T06:46:02;-3.20;99.90
13808;DHT22;40769;51.512;5.494;2022-12-18T06:48:29;-3.40;99.90
13808;DHT22;40769;51.512;5.494;2022-12-18T06:50:55;-3.50;99.90
13808;DHT22;40769;51.512;5.494;2022-12-18T06:53:20;-3.60;99.90
13808;DHT22;40769;51.512;5.494;2022-12-18T06:55:46;-3.70;99.90
13808;DHT22;40769;51.512;5.494;2022-12-18T06:58:11;-3.70;99.90
13808;DHT22;40769;51.512;5.494;2022-12-18T07:00:37;-3.70;99.90
13808;DHT22;40769;51.512;5.494;2022-12-18T07:03:03;-3.70;99.90
13808;DHT22;40769;51.512;5.494;2022-12-18T07:05:28;-3.60;99.90
13808;DHT22;40769;51.512;5.494;2022-12-18T07:07:54;-3.60;99.90
13808;DHT22;40769;51.512;5.494;2022-12-18T07:10:20;-3.50;99.90
13808;DHT22;40769;51.512;5.494;2022-12-18T07:12:45;-3.40;99.90
13808;DHT22;40769;51.512;5.494;2022-12-18T07:15:11;-3.10;99.90
13808;DHT22;40769;51.512;5.494;2022-12-18T07:17:36;-2.90;99.90
13808;DHT22;40769;51.512;5.494;2022-12-18T07:20:03;-2.70;99.90
13808;DHT22;40769;51.512;5.494;2022-12-18T07:22:28;-2.70;99.90
13808;DHT22;40769;51.512;5.494;2022-12-18T07:24:54;-2.80;99.90
13808;DHT22;40769;51.512;5.494;2022-12-18T07:27:21;-2.90;99.90
13808;DHT22;40769;51.512;5.494;2022-12-18T07:29:47;-3.10;99.90
13808;DHT22;40769;51.512;5.494;2022-12-18T07:32:12;-3.20;99.90
13808;DHT22;40769;51.512;5.494;2022-12-18T07:34:38;-3.30;99.90
13808;DHT22;40769;51.512;5.494;2022-12-18T07:37:04;-3.40;99.90
13808;DHT22;40769;51.512;5.494;2022-12-18T07:39:30;-3.50;99.90
13808;DHT22;40769;51.512;5.494;2022-12-18T07:41:55;-3.50;99.90
13808;DHT22;40769;51.512;5.494;2022-12-18T07:44:39;-3.40;99.90
13808;DHT22;40769;51.512;5.494;2022-12-18T07:47:05;-3.50;99.90
13808;DHT22;40769;51.512;5.494;2022-12-18T07:49:31;-3.40;99.90
13808;DHT22;40769;51.512;5.494;2022-12-18T07:51:59;-3.30;99.90
13808;DHT22;40769;51.512;5.494;2022-12-18T07:54:25;-3.10;99.90
13808;DHT22;40769;51.512;5.494;2022-12-18T07:56:51;-3.00;99.90
13808;DHT22;40769;51.512;5.494;2022-12-18T07:59:17;-2.90;99.90
13808;DHT22;40769;51.512;5.494;2022-12-18T08:01:43;-2.70;99.90
13808;DHT22;40769;51.512;5.494;2022-12-18T08:04:09;-2.50;99.90
13808;DHT22;40769;51.512;5.494;2022-12-18T08:06:35;-2.50;99.90
13808;DHT22;40769;51.512;5.494;2022-12-18T08:09:00;-2.40;99.90
13808;DHT22;40769;51.512;5.494;2022-12-18T08:11:28;-2.40;99.90
13808;DHT22;40769;51.512;5.494;2022-12-18T08:13:54;-2.40;99.90
13808;DHT22;40769;51.512;5.494;2022-12-18T08:16:21;-2.40;99.90
13808;DHT22;40769;51.512;5.494;2022-12-18T08:18:47;-2.40;99.90
13808;DHT22;40769;51.512;5.494;2022-12-18T08:21:18;-2.30;99.90
13808;DHT22;40769;51.512;5.494;2022-12-18T08:23:44;-2.40;99.90
13808;DHT22;40769;51.512;5.494;2022-12-18T08:26:13;-2.30;99.90
13808;DHT22;40769;51.512;5.494;2022-12-18T08:28:39;-2.30;99.90
13808;DHT22;40769;51.512;5.494;2022-12-18T08:31:06;-2.20;99.90
13808;DHT22;40769;51.512;5.494;2022-12-18T08:33:32;-2.10;99.90
13808;DHT22;40769;51.512;5.494;2022-12-18T08:36:01;-1.90;99.90
13808;DHT22;40769;51.512;5.494;2022-12-18T08:38:27;-1.80;99.90
13808;DHT22;40769;51.512;5.494;2022-12-18T08:41:00;-1.60;99.90
13808;DHT22;40769;51.512;5.494;2022-12-18T08:43:26;-1.40;99.90
13808;DHT22;40769;51.512;5.494;2022-12-18T08:46:11;-1.20;99.90
13808;DHT22;40769;51.512;5.494;2022-12-18T08:48:36;-0.90;99.90
13808;DHT22;40769;51.512;5.494;2022-12-18T08:51:02;-0.80;99.90
13808;DHT22;40769;51.512;5.494;2022-12-18T08:53:27;-0.80;99.90
13808;DHT22;40769;51.512;5.494;2022-12-18T08:55:53;-0.80;99.90
13808;DHT22;40769;51.512;5.494;2022-12-18T08:58:19;-0.90;99.90
13808;DHT22;40769;51.512;5.494;2022-12-18T09:00:45;-0.90;99.90
13808;DHT22;40769;51.512;5.494;2022-12-18T09:03:15;-0.90;99.90
13808;DHT22;40769;51.512;5.494;2022-12-18T09:05:41;-0.80;99.90
13808;DHT22;40769;51.512;5.494;2022-12-18T09:08:07;-0.80;99.90
13808;DHT22;40769;51.512;5.494;2022-12-18T09:10:33;-0.80;99.90
13808;DHT22;40769;51.512;5.494;2022-12-18T09:12:58;-0.80;99.90
13808;DHT22;40769;51.512;5.494;2022-12-18T09:15:24;-0.70;99.90
13808;DHT22;40769;51.512;5.494;2022-12-18T09:17:50;-0.60;99.90
13808;DHT22;40769;51.512;5.494;2022-12-18T09:20:16;-0.50;99.90
13808;DHT22;40769;51.512;5.494;2022-12-18T09:22:42;-0.40;99.90
13808;DHT22;40769;51.512;5.494;2022-12-18T09:25:07;-0.30;99.90
13808;DHT22;40769;51.512;5.494;2022-12-18T09:27:34;-0.20;99.90
13808;DHT22;40769;51.512;5.494;2022-12-18T09:29:59;-0.10;99.90
13808;DHT22;40769;51.512;5.494;2022-12-18T09:32:25;0.10;99.90
13808;DHT22;40769;51.512;5.494;2022-12-18T09:34:51;0.20;99.90
13808;DHT22;40769;51.512;5.494;2022-12-18T09:37:17;0.30;99.90
13808;DHT22;40769;51.512;5.494;2022-12-18T09:39:42;0.30;99.90
13808;DHT22;40769;51.512;5.494;2022-12-18T09:42:22;0.20;99.90
13808;DHT22;40769;51.512;5.494;2022-12-18T09:44:53;0.20;99.90
13808;DHT22;40769;51.512;5.494;2022-12-18T09:47:27;0.10;99.90
13808;DHT22;40769;51.512;5.494;2022-12-18T09:50:01;0.10;99.90
13808;DHT22;40769;51.512;5.494;2022-12-18T09:52:32;0.10;99.90
13808;DHT22;40769;51.512;5.494;2022-12-18T09:57:35;0.10;99.90
13808;DHT22;40769;51.512;5.494;2022-12-18T10:00:19;0.10;99.90
13808;DHT22;40769;51.512;5.494;2022-12-18T10:02:46;0.20;99.90
13808;DHT22;40769;51.512;5.494;2022-12-18T10:05:15;0.20;99.90
13808;DHT22;40769;51.512;5.494;2022-12-18T10:08:13;0.40;99.90
13808;DHT22;40769;51.512;5.494;2022-12-18T10:10:57;0.50;99.90
13808;DHT22;40769;51.512;5.494;2022-12-18T10:14:09;0.70;99.90
13808;DHT22;40769;51.512;5.494;2022-12-18T10:17:19;0.90;99.90
13808;DHT22;40769;51.512;5.494;2022-12-18T10:19:43;1.10;99.90
13808;DHT22;40769;51.512;5.494;2022-12-18T10:27:25;1.20;99.90
13808;DHT22;40769;51.512;5.494;2022-12-18T10:29:51;1.20;99.90
13808;DHT22;40769;51.512;5.494;2022-12-18T10:32:23;1.10;99.90
13808;DHT22;40769;51.512;5.494;2022-12-18T10:34:51;1.20;99.90
13808;DHT22;40769;51.512;5.494;2022-12-18T10:37:20;1.20;99.90
13808;DHT22;40769;51.512;5.494;2022-12-18T10:42:42;1.20;99.90
13808;DHT22;40769;51.512;5.494;2022-12-18T10:45:14;1.30;99.90
13808;DHT22;40769;51.512;5.494;2022-12-18T10:47:46;1.40;99.90
13808;DHT22;40769;51.512;5.494;2022-12-18T10:50:33;2.60;99.90
13808;DHT22;40769;51.512;5.494;2022-12-18T10:53:01;1.50;99.90
13808;DHT22;40769;51.512;5.494;2022-12-18T10:55:34;1.60;99.90
13808;DHT22;40769;51.512;5.494;2022-12-18T11:01:03;1.90;99.90
13808;DHT22;40769;51.512;5.494;2022-12-18T11:03:36;2.00;99.90
13808;DHT22;40769;51.512;5.494;2022-12-18T11:06:05;2.10;99.90
13808;DHT22;40769;51.512;5.494;2022-12-18T11:08:31;2.20;99.90
13808;DHT22;40769;51.512;5.494;2022-12-18T11:10:56;2.30;99.90
13808;DHT22;40769;51.512;5.494;2022-12-18T11:13:24;2.40;99.90
13808;DHT22;40769;51.512;5.494;2022-12-18T11:15:51;2.10;99.90
13808;DHT22;40769;51.512;5.494;2022-12-18T11:18:25;2.60;99.90
13808;DHT22;40769;51.512;5.494;2022-12-18T11:21:06;1.40;99.90
13808;DHT22;40769;51.512;5.494;2022-12-18T11:23:34;2.50;99.90
13808;DHT22;40769;51.512;5.494;2022-12-18T11:26:02;2.50;99.90
13808;DHT22;40769;51.512;5.494;2022-12-18T11:31:19;2.40;99.90
13808;DHT22;40769;51.512;5.494;2022-12-18T11:34:05;2.30;99.90
13808;DHT22;40769;51.512;5.494;2022-12-18T11:36:38;2.30;99.90
13808;DHT22;40769;51.512;5.494;2022-12-18T11:39:18;2.30;99.90
13808;DHT22;40769;51.512;5.494;2022-12-18T11:41:54;2.30;99.90
13808;DHT22;40769;51.512;5.494;2022-12-18T11:44:57;2.30;99.90
13808;DHT22;40769;51.512;5.494;2022-12-18T11:47:40;2.30;99.90
13808;DHT22;40769;51.512;5.494;2022-12-18T11:53:02;2.40;99.90
13808;DHT22;40769;51.512;5.494;2022-12-18T11:55:39;2.40;99.90
13808;DHT22;40769;51.512;5.494;2022-12-18T12:00:56;2.60;99.90
13808;DHT22;40769;51.512;5.494;2022-12-18T12:06:12;2.90;99.90
13808;DHT22;40769;51.512;5.494;2022-12-18T12:08:52;2.90;99.90
13808;DHT22;40769;51.512;5.494;2022-12-18T12:16:58;2.70;99.90
13808;DHT22;40769;51.512;5.494;2022-12-18T12:30:28;2.50;99.90
13808;DHT22;40769;51.512;5.494;2022-12-18T12:33:16;2.50;99.90
13808;DHT22;40769;51.512;5.494;2022-12-18T12:35:57;2.60;99.90
13808;DHT22;40769;51.512;5.494;2022-12-18T12:38:41;2.70;99.90
13808;DHT22;40769;51.512;5.494;2022-12-18T12:41:11;2.80;99.90
13808;DHT22;40769;51.512;5.494;2022-12-18T12:43:59;2.90;99.90
13808;DHT22;40769;51.512;5.494;2022-12-18T12:46:28;3.00;99.90
13808;DHT22;40769;51.512;5.494;2022-12-18T12:49:02;3.20;99.90
13808;DHT22;40769;51.512;5.494;2022-12-18T12:51:33;3.10;99.90
13808;DHT22;40769;51.512;5.494;2022-12-18T12:54:00;3.10;99.90
13808;DHT22;40769;51.512;5.494;2022-12-18T13:01:56;3.00;99.90
13808;DHT22;40769;51.512;5.494;2022-12-18T13:04:42;2.90;99.90
13808;DHT22;40769;51.512;5.494;2022-12-18T13:07:40;2.90;99.90
13808;DHT22;40769;51.512;5.494;2022-12-18T13:18:26;2.80;99.90
13808;DHT22;40769;51.512;5.494;2022-12-18T13:31:10;3.00;99.90
13808;DHT22;40769;51.512;5.494;2022-12-18T13:33:46;3.00;99.90
13808;DHT22;40769;51.512;5.494;2022-12-18T13:36:30;3.00;99.90
13808;DHT22;40769;51.512;5.494;2022-12-18T13:41:35;3.00;99.90
13808;DHT22;40769;51.512;5.494;2022-12-18T13:46:49;3.20;99.90
13808;DHT22;40769;51.512;5.494;2022-12-18T13:49:40;3.30;99.90
13808;DHT22;40769;51.512;5.494;2022-12-18T13:52:27;3.40;99.90
13808;DHT22;40769;51.512;5.494;2022-12-18T13:54:58;3.40;99.90
13808;DHT22;40769;51.512;5.494;2022-12-18T13:57:31;3.30;99.90
13808;DHT22;40769;51.512;5.494;2022-12-18T13:59:58;3.20;99.90
13808;DHT22;40769;51.512;5.494;2022-12-18T14:02:37;3.10;99.90
13808;DHT22;40769;51.512;5.494;2022-12-18T14:05:03;3.10;99.90
13808;DHT22;40769;51.512;5.494;2022-12-18T14:07:29;3.10;99.90
13808;DHT22;40769;51.512;5.494;2022-12-18T14:09:59;3.00;99.90
13808;DHT22;40769;51.512;5.494;2022-12-18T14:12:33;3.00;99.90
13808;DHT22;40769;51.512;5.494;2022-12-18T14:15:43;2.90;99.90
13808;DHT22;40769;51.512;5.494;2022-12-18T14:20:52;2.90;99.90
13808;DHT22;40769;51.512;5.494;2022-12-18T14:23:39;2.90;99.90
13808;DHT22;40769;51.512;5.494;2022-12-18T14:26:27;3.00;99.90
13808;DHT22;40769;51.512;5.494;2022-12-18T14:28:58;3.00;99.90
13808;DHT22;40769;51.512;5.494;2022-12-18T14:31:28;3.10;99.90
13808;DHT22;40769;51.512;5.494;2022-12-18T14:33:54;3.30;99.90
13808;DHT22;40769;51.512;5.494;2022-12-18T14:36:25;3.40;99.90
13808;DHT22;40769;51.512;5.494;2022-12-18T14:38:56;3.40;99.90
13808;DHT22;40769;51.512;5.494;2022-12-18T14:41:23;3.30;99.90
13808;DHT22;40769;51.512;5.494;2022-12-18T14:43:51;3.30;99.90
13808;DHT22;40769;51.512;5.494;2022-12-18T14:48:59;3.10;99.90
13808;DHT22;40769;51.512;5.494;2022-12-18T14:51:27;3.10;99.90
13808;DHT22;40769;51.512;5.494;2022-12-18T14:54:01;3.10;99.90
13808;DHT22;40769;51.512;5.494;2022-12-18T14:56:33;3.10;99.90
13808;DHT22;40769;51.512;5.494;2022-12-18T14:59:04;3.00;99.90
13808;DHT22;40769;51.512;5.494;2022-12-18T15:01:39;3.00;99.90
13808;DHT22;40769;51.512;5.494;2022-12-18T15:04:30;2.90;99.90
13808;DHT22;40769;51.512;5.494;2022-12-18T15:07:23;2.90;99.90
13808;DHT22;40769;51.512;5.494;2022-12-18T15:10:17;2.90;99.90
13808;DHT22;40769;51.512;5.494;2022-12-18T15:18:09;2.90;99.90
13808;DHT22;40769;51.512;5.494;2022-12-18T15:20:43;3.00;99.90
13808;DHT22;40769;51.512;5.494;2022-12-18T15:23:24;3.00;99.90
13808;DHT22;40769;51.512;5.494;2022-12-18T15:26:04;3.10;99.90
13808;DHT22;40769;51.512;5.494;2022-12-18T15:28:55;3.00;99.90
13808;DHT22;40769;51.512;5.494;2022-12-18T15:31:33;3.00;99.90
13808;DHT22;40769;51.512;5.494;2022-12-18T15:36:33;3.00;99.90
13808;DHT22;40769;51.512;5.494;2022-12-18T15:39:02;3.00;99.90
13808;DHT22;40769;51.512;5.494;2022-12-18T15:41:32;3.00;99.90
13808;DHT22;40769;51.512;5.494;2022-12-18T15:43:59;3.00;99.90
13808;DHT22;40769;51.512;5.494;2022-12-18T15:46:25;3.10;99.90
13808;DHT22;40769;51.512;5.494;2022-12-18T15:48:53;3.30;99.90
13808;DHT22;40769;51.512;5.494;2022-12-18T15:51:20;3.30;99.90
13808;DHT22;40769;51.512;5.494;2022-12-18T15:53:48;3.30;99.90
13808;DHT22;40769;51.512;5.494;2022-12-18T15:56:15;3.30;99.90
13808;DHT22;40769;51.512;5.494;2022-12-18T15:59:00;3.20;99.90
13808;DHT22;40769;51.512;5.494;2022-12-18T16:01:32;3.10;99.90
13808;DHT22;40769;51.512;5.494;2022-12-18T16:03:58;3.00;99.90
13808;DHT22;40769;51.512;5.494;2022-12-18T16:06:33;3.00;99.90
13808;DHT22;40769;51.512;5.494;2022-12-18T16:08:58;2.90;99.90
13808;DHT22;40769;51.512;5.494;2022-12-18T16:11:27;2.90;99.90
13808;DHT22;40769;51.512;5.494;2022-12-18T16:16:50;2.80;99.90
13808;DHT22;40769;51.512;5.494;2022-12-18T16:19:16;2.90;99.90
13808;DHT22;40769;51.512;5.494;2022-12-18T16:21:42;2.80;99.90
13808;DHT22;40769;51.512;5.494;2022-12-18T16:24:15;2.80;99.90
13808;DHT22;40769;51.512;5.494;2022-12-18T16:26:42;2.80;99.90
13808;DHT22;40769;51.512;5.494;2022-12-18T16:29:09;2.80;99.90
13808;DHT22;40769;51.512;5.494;2022-12-18T16:31:34;2.90;99.90
13808;DHT22;40769;51.512;5.494;2022-12-18T16:34:21;2.90;99.90
13808;DHT22;40769;51.512;5.494;2022-12-18T16:36:52;2.90;99.90
13808;DHT22;40769;51.512;5.494;2022-12-18T16:39:19;3.00;99.90
13808;DHT22;40769;51.512;5.494;2022-12-18T16:41:45;3.00;99.90
13808;DHT22;40769;51.512;5.494;2022-12-18T16:44:11;3.10;99.90
13808;DHT22;40769;51.512;5.494;2022-12-18T16:46:40;3.10;99.90
13808;DHT22;40769;51.512;5.494;2022-12-18T16:49:09;3.10;99.90
13808;DHT22;40769;51.512;5.494;2022-12-18T16:51:35;3.20;99.90
13808;DHT22;40769;51.512;5.494;2022-12-18T16:54:01;3.30;99.90
13808;DHT22;40769;51.512;5.494;2022-12-18T16:56:26;3.40;99.90
13808;DHT22;40769;51.512;5.494;2022-12-18T16:58:53;4.50;99.90
13808;DHT22;40769;51.512;5.494;2022-12-18T17:01:19;3.50;99.90
13808;DHT22;40769;51.512;5.494;2022-12-18T17:03:51;3.60;99.90
13808;DHT22;40769;51.512;5.494;2022-12-18T17:06:17;3.70;99.90
13808;DHT22;40769;51.512;5.494;2022-12-18T17:08:42;3.70;99.90
13808;DHT22;40769;51.512;5.494;2022-12-18T17:11:08;3.70;99.90
13808;DHT22;40769;51.512;5.494;2022-12-18T17:13:34;3.80;99.90
13808;DHT22;40769;51.512;5.494;2022-12-18T17:16:04;3.90;99.90
13808;DHT22;40769;51.512;5.494;2022-12-18T17:18:30;5.00;99.90
13808;DHT22;40769;51.512;5.494;2022-12-18T17:20:59;4.10;99.90
13808;DHT22;40769;51.512;5.494;2022-12-18T17:23:25;4.20;99.90
13808;DHT22;40769;51.512;5.494;2022-12-18T17:25:54;4.10;99.90
13808;DHT22;40769;51.512;5.494;2022-12-18T17:28:21;4.00;99.90
13808;DHT22;40769;51.512;5.494;2022-12-18T17:30:47;3.90;99.90
13808;DHT22;40769;51.512;5.494;2022-12-18T17:33:13;3.80;99.90
13808;DHT22;40769;51.512;5.494;2022-12-18T17:35:38;3.70;99.90
13808;DHT22;40769;51.512;5.494;2022-12-18T17:38:04;3.60;99.90
13808;DHT22;40769;51.512;5.494;2022-12-18T17:40:32;3.50;99.90
13808;DHT22;40769;51.512;5.494;2022-12-18T17:42:57;3.50;99.90
13808;DHT22;40769;51.512;5.494;2022-12-18T17:45:24;3.40;99.90
13808;DHT22;40769;51.512;5.494;2022-12-18T17:47:50;3.40;99.90